createdAt,value
2022-07-30T00:01:40.719Z,25.60
2022-07-30T00:04:07.572Z,25.70
2022-07-30T00:06:34.396Z,25.70
2022-07-30T00:09:01.095Z,25.60
2022-07-30T00:11:28.268Z,25.60
2022-07-30T00:13:55.230Z,25.60
2022-07-30T00:16:21.998Z,25.50
2022-07-30T00:18:50.002Z,25.50
2022-07-30T00:21:34.744Z,25.40
2022-07-30T00:24:36.450Z,25.40
2022-07-30T00:27:03.526Z,25.40
2022-07-30T00:29:33.996Z,25.30
2022-07-30T00:32:00.684Z,25.30
2022-07-30T00:34:27.341Z,25.30
2022-07-30T00:36:54.125Z,25.20
2022-07-30T00:39:20.856Z,25.20
2022-07-30T00:41:57.816Z,25.20
2022-07-30T00:44:24.541Z,25.20
2022-07-30T00:46:51.431Z,25.20
2022-07-30T00:49:18.153Z,25.30
2022-07-30T00:51:44.906Z,25.40
2022-07-30T00:54:11.662Z,25.50
2022-07-30T00:56:38.709Z,25.70
2022-07-30T00:59:05.384Z,25.80
2022-07-30T01:01:35.356Z,25.80
2022-07-30T01:04:02.135Z,25.80
2022-07-30T01:06:28.812Z,25.70
2022-07-30T01:08:55.555Z,25.60
2022-07-30T01:11:33.844Z,25.60
2022-07-30T01:14:00.672Z,25.50
2022-07-30T01:16:27.410Z,25.50
2022-07-30T01:19:12.742Z,25.40
2022-07-30T01:21:39.684Z,25.40
2022-07-30T01:24:27.332Z,25.40
2022-07-30T01:26:54.205Z,25.40
2022-07-30T01:29:20.916Z,25.30
2022-07-30T01:31:47.674Z,25.30
2022-07-30T01:34:14.963Z,25.30
2022-07-30T01:36:42.445Z,25.30
2022-07-30T01:39:09.212Z,25.30
2022-07-30T01:41:35.891Z,25.20
2022-07-30T01:44:02.610Z,25.20
2022-07-30T01:46:29.295Z,25.20
2022-07-30T01:48:56.182Z,25.20
2022-07-30T01:51:22.869Z,25.20
2022-07-30T01:53:49.765Z,25.30
2022-07-30T01:56:16.825Z,25.50
2022-07-30T01:58:43.727Z,25.60
2022-07-30T02:01:10.573Z,25.80
2022-07-30T02:03:37.456Z,25.80
2022-07-30T02:06:05.405Z,25.70
2022-07-30T02:08:36.760Z,25.70
2022-07-30T02:11:10.731Z,25.60
2022-07-30T02:13:43.781Z,25.60
2022-07-30T02:16:30.794Z,25.50
2022-07-30T02:19:09.850Z,25.40
2022-07-30T02:21:40.922Z,25.40
2022-07-30T02:24:18.323Z,25.40
2022-07-30T02:26:46.344Z,25.30
2022-07-30T02:29:13.149Z,25.30
2022-07-30T02:31:39.944Z,25.30
2022-07-30T02:34:07.129Z,25.30
2022-07-30T02:36:33.864Z,25.20
2022-07-30T02:39:00.584Z,25.20
2022-07-30T02:41:28.029Z,25.20
2022-07-30T02:43:54.788Z,25.20
2022-07-30T02:46:21.876Z,25.20
2022-07-30T02:48:48.630Z,25.20
2022-07-30T02:51:16.134Z,25.30
2022-07-30T02:53:46.038Z,25.40
2022-07-30T02:56:12.810Z,25.50
2022-07-30T02:58:39.644Z,25.70
2022-07-30T03:01:06.918Z,25.80
2022-07-30T03:03:33.652Z,25.80
2022-07-30T03:06:00.341Z,25.80
2022-07-30T03:08:27.038Z,25.70
2022-07-30T03:10:54.325Z,25.60
2022-07-30T03:13:21.197Z,25.60
2022-07-30T03:15:49.146Z,25.50
2022-07-30T03:18:16.875Z,25.50
2022-07-30T03:20:45.402Z,25.50
2022-07-30T03:23:12.203Z,25.40
2022-07-30T03:25:38.880Z,25.40
2022-07-30T03:28:05.757Z,25.40
2022-07-30T03:30:33.017Z,25.40
2022-07-30T03:32:59.862Z,25.30
2022-07-30T03:35:26.679Z,25.40
2022-07-30T03:37:53.542Z,25.20
2022-07-30T03:40:20.359Z,25.30
2022-07-30T03:42:47.817Z,25.20
2022-07-30T03:45:14.590Z,25.20
2022-07-30T03:47:42.223Z,25.20
2022-07-30T03:50:09.249Z,25.20
2022-07-30T03:52:41.091Z,25.20
2022-07-30T03:55:08.818Z,25.30
2022-07-30T03:57:35.681Z,25.40
2022-07-30T04:00:07.971Z,25.60
2022-07-30T04:02:40.922Z,25.70
2022-07-30T04:05:07.914Z,25.80
2022-07-30T04:07:34.604Z,25.80
2022-07-30T04:10:08.463Z,25.70
2022-07-30T04:12:36.650Z,25.60
2022-07-30T04:15:03.546Z,25.60
2022-07-30T04:17:51.731Z,25.50
2022-07-30T04:20:25.990Z,25.40
2022-07-30T04:22:52.723Z,25.40
2022-07-30T04:25:24.421Z,25.40
2022-07-30T04:28:01.907Z,25.40
2022-07-30T04:30:30.677Z,25.30
2022-07-30T04:32:57.355Z,25.30
2022-07-30T04:35:50.984Z,25.30
2022-07-30T04:38:17.344Z,25.20
2022-07-30T04:40:44.064Z,25.20
2022-07-30T04:43:10.751Z,25.20
2022-07-30T04:45:39.077Z,25.10
2022-07-30T04:48:06.112Z,25.10
2022-07-30T04:50:33.100Z,25.10
2022-07-30T04:52:59.795Z,25.10
2022-07-30T04:55:26.533Z,25.10
2022-07-30T04:57:53.278Z,25.20
2022-07-30T05:00:20.057Z,25.30
2022-07-30T05:02:46.764Z,25.40
2022-07-30T05:05:14.627Z,25.60
2022-07-30T05:07:41.499Z,25.70
2022-07-30T05:10:09.133Z,25.70
2022-07-30T05:12:37.622Z,25.60
2022-07-30T05:15:05.078Z,25.60
2022-07-30T05:17:31.918Z,25.60
2022-07-30T05:19:58.898Z,25.50
2022-07-30T05:22:30.029Z,25.40
2022-07-30T05:24:57.093Z,25.40
2022-07-30T05:27:23.913Z,25.40
2022-07-30T05:29:50.622Z,25.30
2022-07-30T05:32:17.331Z,25.40
2022-07-30T05:34:45.574Z,25.20
2022-07-30T05:37:17.007Z,25.00
2022-07-30T05:39:57.314Z,24.80
2022-07-30T05:42:31.235Z,24.60
2022-07-30T05:44:57.984Z,24.40
2022-07-30T05:47:24.742Z,24.30
2022-07-30T05:49:51.438Z,24.10
2022-07-30T05:52:18.125Z,24.00
2022-07-30T05:54:45.114Z,24.00
2022-07-30T05:57:11.807Z,23.80
2022-07-30T05:59:38.828Z,23.80
2022-07-30T06:02:06.822Z,23.70
2022-07-30T06:04:35.591Z,23.60
2022-07-30T06:07:03.434Z,23.60
2022-07-30T06:09:36.771Z,23.60
2022-07-30T06:12:04.487Z,23.50
2022-07-30T06:14:32.315Z,23.50
2022-07-30T06:16:59.436Z,23.50
2022-07-30T06:19:26.498Z,23.50
2022-07-30T06:22:05.318Z,23.50
2022-07-30T06:24:33.916Z,23.50
2022-07-30T06:27:01.014Z,23.60
2022-07-30T06:29:28.179Z,23.80
2022-07-30T06:31:55.114Z,23.90
2022-07-30T06:34:21.862Z,24.10
2022-07-30T06:36:48.797Z,24.00
2022-07-30T06:39:57.148Z,24.00
2022-07-30T06:42:02.563Z,24.00
2022-07-30T06:44:29.398Z,23.90
2022-07-30T06:46:56.187Z,23.90
2022-07-30T06:49:23.156Z,23.80
2022-07-30T06:51:53.165Z,23.90
2022-07-30T06:54:20.019Z,23.80
2022-07-30T06:56:46.737Z,23.90
2022-07-30T06:59:13.775Z,23.90
2022-07-30T07:01:41.127Z,23.90
2022-07-30T07:04:07.907Z,23.90
2022-07-30T07:06:37.030Z,23.90
2022-07-30T07:09:04.231Z,23.80
2022-07-30T07:11:31.187Z,23.70
2022-07-30T07:14:00.309Z,23.70
2022-07-30T07:16:31.046Z,23.70
2022-07-30T07:18:57.802Z,23.70
2022-07-30T07:21:25.150Z,23.70
2022-07-30T07:23:52.120Z,23.60
2022-07-30T07:26:19.148Z,23.60
2022-07-30T07:28:45.829Z,23.70
2022-07-30T07:32:06.520Z,23.60
2022-07-30T07:33:59.290Z,23.60
2022-07-30T07:36:26.002Z,23.70
2022-07-30T07:38:52.783Z,23.80
2022-07-30T07:41:19.513Z,24.00
2022-07-30T07:43:46.250Z,24.10
2022-07-30T07:46:16.520Z,24.20
2022-07-30T07:48:59.873Z,24.20
2022-07-30T07:51:34.771Z,24.10
2022-07-30T07:54:21.692Z,24.00
2022-07-30T07:56:51.652Z,23.90
2022-07-30T07:59:19.957Z,23.90
2022-07-30T08:01:47.202Z,23.80
2022-07-30T08:04:16.870Z,23.80
2022-07-30T08:06:43.568Z,23.80
2022-07-30T08:09:10.277Z,23.80
2022-07-30T08:11:37.512Z,23.70
2022-07-30T08:14:04.216Z,23.70
2022-07-30T08:16:31.084Z,23.80
2022-07-30T08:18:57.817Z,23.80
2022-07-30T08:21:24.521Z,23.90
2022-07-30T08:23:51.247Z,23.80
2022-07-30T08:26:17.984Z,23.80
2022-07-30T08:28:45.819Z,23.80
2022-07-30T08:31:12.813Z,23.80
2022-07-30T08:33:39.514Z,23.80
2022-07-30T08:36:09.155Z,23.80
2022-07-30T08:38:36.893Z,23.80
2022-07-30T08:41:03.853Z,23.70
2022-07-30T08:43:30.654Z,23.70
2022-07-30T08:45:57.729Z,23.80
2022-07-30T08:48:24.631Z,23.80
2022-07-30T08:50:52.354Z,23.80
2022-07-30T08:53:19.144Z,24.00
2022-07-30T08:55:46.329Z,24.10
2022-07-30T08:58:18.202Z,24.30
2022-07-30T09:00:44.970Z,24.50
2022-07-30T09:03:11.865Z,24.50
2022-07-30T09:05:38.611Z,24.40
2022-07-30T09:08:08.804Z,24.40
2022-07-30T09:10:35.784Z,24.30
2022-07-30T09:13:02.551Z,24.30
2022-07-30T09:15:29.417Z,24.20
2022-07-30T09:17:57.219Z,24.20
2022-07-30T09:20:27.797Z,24.10
2022-07-30T09:22:55.601Z,24.10
2022-07-30T09:25:35.472Z,24.10
2022-07-30T09:28:02.260Z,24.00
2022-07-30T09:30:53.709Z,24.10
2022-07-30T09:33:33.916Z,24.10
2022-07-30T09:36:01.345Z,24.00
2022-07-30T09:38:28.209Z,24.00
2022-07-30T09:40:57.236Z,24.00
2022-07-30T09:43:27.823Z,24.10
2022-07-30T09:45:57.934Z,24.10
2022-07-30T09:48:25.855Z,24.10
2022-07-30T09:50:53.371Z,24.10
2022-07-30T09:53:22.417Z,24.10
2022-07-30T09:55:49.104Z,24.10
2022-07-30T09:58:26.597Z,24.30
2022-07-30T10:00:59.667Z,24.50
2022-07-30T10:03:33.830Z,24.70
2022-07-30T10:06:08.829Z,24.90
2022-07-30T10:08:41.307Z,25.00
2022-07-30T10:11:10.079Z,25.00
2022-07-30T10:13:36.827Z,25.00
2022-07-30T10:16:03.814Z,25.00
2022-07-30T10:18:30.592Z,24.80
2022-07-30T10:20:57.943Z,24.80
2022-07-30T10:23:29.838Z,24.70
2022-07-30T10:26:00.336Z,24.70
2022-07-30T10:28:34.642Z,24.70
2022-07-30T10:31:46.448Z,24.60
2022-07-30T10:33:52.377Z,24.60
2022-07-30T10:36:19.318Z,24.60
2022-07-30T10:38:52.540Z,24.60
2022-07-30T10:41:42.539Z,24.60
2022-07-30T10:44:20.081Z,24.60
2022-07-30T10:46:47.543Z,24.60
2022-07-30T10:49:19.000Z,24.50
2022-07-30T10:51:52.615Z,24.60
2022-07-30T10:54:39.309Z,24.80
2022-07-30T10:57:10.723Z,25.00
2022-07-30T10:59:48.397Z,25.10
2022-07-30T11:02:17.856Z,25.20
2022-07-30T11:04:46.388Z,25.20
2022-07-30T11:07:23.635Z,25.20
2022-07-30T11:10:04.830Z,25.20
2022-07-30T11:12:41.679Z,25.20
2022-07-30T11:15:18.619Z,25.10
2022-07-30T11:18:01.500Z,25.10
2022-07-30T11:20:28.838Z,25.00
2022-07-30T11:23:08.207Z,25.00
2022-07-30T11:25:50.444Z,25.00
2022-07-30T11:28:49.179Z,25.00
2022-07-30T11:31:58.682Z,25.00
2022-07-30T11:34:26.093Z,24.90
2022-07-30T11:37:17.748Z,25.00
2022-07-30T11:39:54.187Z,25.00
2022-07-30T11:42:27.247Z,25.20
2022-07-30T11:44:54.023Z,25.40
2022-07-30T11:47:20.741Z,25.40
2022-07-30T11:49:47.445Z,25.60
2022-07-30T11:52:14.150Z,25.70
2022-07-30T11:54:53.351Z,25.60
2022-07-30T11:57:20.024Z,25.60
2022-07-30T11:59:56.102Z,25.60
2022-07-30T12:02:28.924Z,25.50
2022-07-30T12:04:55.667Z,25.40
2022-07-30T12:07:23.313Z,25.40
2022-07-30T12:09:50.055Z,25.30
2022-07-30T12:12:27.388Z,25.30
2022-07-30T12:14:55.008Z,25.20
2022-07-30T12:17:40.097Z,25.20
2022-07-30T12:20:13.770Z,25.10
2022-07-30T12:22:40.468Z,25.10
2022-07-30T12:25:08.562Z,25.00
2022-07-30T12:27:35.271Z,25.10
2022-07-30T12:30:02.202Z,25.20
2022-07-30T12:32:31.402Z,25.30
2022-07-30T12:34:58.199Z,25.40
2022-07-30T12:37:25.071Z,25.50
2022-07-30T12:40:09.591Z,25.60
2022-07-30T12:42:49.643Z,25.60
2022-07-30T12:45:26.219Z,25.60
2022-07-30T12:47:53.962Z,25.50
2022-07-30T12:50:21.013Z,25.50
2022-07-30T12:52:53.777Z,25.40
2022-07-30T12:55:28.544Z,25.30
2022-07-30T12:58:07.047Z,25.30
2022-07-30T13:00:43.961Z,25.20
2022-07-30T13:03:40.548Z,25.10
2022-07-30T13:06:14.141Z,25.00
2022-07-30T13:08:53.895Z,25.00
2022-07-30T13:11:21.555Z,25.00
2022-07-30T13:13:48.253Z,25.00
2022-07-30T13:16:14.994Z,24.90
2022-07-30T13:18:41.759Z,25.00
2022-07-30T13:21:09.351Z,25.10
2022-07-30T13:23:36.896Z,25.20
2022-07-30T13:26:03.590Z,25.40
2022-07-30T13:28:31.933Z,25.50
2022-07-30T13:30:58.848Z,25.50
2022-07-30T13:33:25.898Z,25.40
2022-07-30T13:35:52.675Z,25.40
2022-07-30T13:38:19.379Z,25.30
2022-07-30T13:40:46.080Z,25.30
2022-07-30T13:43:12.855Z,25.30
2022-07-30T13:45:39.670Z,25.20
2022-07-30T13:48:06.560Z,25.20
2022-07-30T13:50:33.752Z,25.20
2022-07-30T13:53:02.527Z,25.20
2022-07-30T13:55:29.952Z,25.20
2022-07-30T13:57:56.796Z,25.20
2022-07-30T14:00:23.573Z,25.20
2022-07-30T14:02:51.565Z,25.20
2022-07-30T14:05:18.743Z,25.30
2022-07-30T14:07:45.537Z,25.40
2022-07-30T14:10:12.306Z,25.50
2022-07-30T14:12:40.086Z,25.60
2022-07-30T14:15:07.519Z,25.70
2022-07-30T14:17:34.420Z,25.80
2022-07-30T14:20:01.226Z,25.80
2022-07-30T14:22:27.927Z,25.70
2022-07-30T14:24:54.729Z,25.70
2022-07-30T14:27:21.428Z,25.60
2022-07-30T14:29:48.259Z,25.60
2022-07-30T14:32:14.981Z,25.60
2022-07-30T14:34:41.768Z,25.50
2022-07-30T14:37:16.603Z,25.40
2022-07-30T14:39:43.285Z,25.30
2022-07-30T14:42:11.290Z,25.20
2022-07-30T14:44:38.106Z,25.20
2022-07-30T14:47:05.206Z,25.10
2022-07-30T14:49:32.161Z,25.00
2022-07-30T14:51:59.002Z,24.90
2022-07-30T14:54:25.736Z,24.80
2022-07-30T14:56:57.758Z,24.80
2022-07-30T14:59:25.685Z,25.00
2022-07-30T15:01:52.864Z,25.10
2022-07-30T15:04:19.695Z,25.20
2022-07-30T15:06:46.415Z,25.30
2022-07-30T15:09:13.235Z,25.10
2022-07-30T15:12:07.881Z,25.10
2022-07-30T15:14:27.113Z,25.00
2022-07-30T15:16:56.769Z,25.00
2022-07-30T15:19:25.566Z,24.90
2022-07-30T15:21:52.267Z,24.80
2022-07-30T15:24:19.040Z,24.80
2022-07-30T15:26:47.191Z,24.70
2022-07-30T15:29:13.929Z,24.70
2022-07-30T15:31:40.659Z,24.70
2022-07-30T15:34:10.907Z,24.70
2022-07-30T15:36:39.032Z,24.70
2022-07-30T15:39:06.609Z,24.60
2022-07-30T15:41:33.471Z,24.60
2022-07-30T15:44:00.187Z,24.60
2022-07-30T15:46:27.005Z,24.70
2022-07-30T15:48:54.691Z,24.90
2022-07-30T15:51:21.765Z,25.00
2022-07-30T15:53:48.751Z,25.20
2022-07-30T15:56:15.955Z,25.30
2022-07-30T15:58:43.691Z,25.20
2022-07-30T16:01:10.608Z,25.20
2022-07-30T16:03:37.439Z,25.10
2022-07-30T16:06:04.192Z,25.00
2022-07-30T16:08:30.872Z,25.00
2022-07-30T16:10:58.335Z,24.90
2022-07-30T16:13:25.020Z,24.90
2022-07-30T16:15:51.807Z,24.80
2022-07-30T16:18:18.532Z,24.70
2022-07-30T16:20:45.251Z,24.70
2022-07-30T16:23:14.106Z,24.60
2022-07-30T16:25:42.699Z,24.60
2022-07-30T16:28:09.382Z,24.60
2022-07-30T16:30:36.111Z,24.60
2022-07-30T16:33:17.326Z,24.50
2022-07-30T16:35:49.370Z,24.50
2022-07-30T16:38:18.341Z,24.60
2022-07-30T16:40:45.468Z,24.70
2022-07-30T16:43:12.148Z,24.80
2022-07-30T16:45:38.912Z,25.00
2022-07-30T16:48:05.686Z,25.20
2022-07-30T16:50:35.608Z,25.20
2022-07-30T16:53:02.357Z,25.10
2022-07-30T16:55:29.155Z,24.90
2022-07-30T16:57:57.420Z,24.80
2022-07-30T17:00:25.623Z,24.80
2022-07-30T17:02:52.524Z,24.70
2022-07-30T17:05:19.247Z,24.70
2022-07-30T17:07:46.011Z,24.70
2022-07-30T17:10:12.840Z,24.70
2022-07-30T17:12:40.185Z,24.70
2022-07-30T17:15:07.320Z,24.70
2022-07-30T17:17:34.066Z,24.60
2022-07-30T17:20:01.984Z,24.60
2022-07-30T17:22:29.064Z,24.60
2022-07-30T17:24:55.745Z,24.50
2022-07-30T17:27:22.500Z,24.50
2022-07-30T17:29:50.155Z,24.60
2022-07-30T17:32:18.006Z,24.70
2022-07-30T17:34:44.765Z,24.90
2022-07-30T17:37:11.607Z,25.10
2022-07-30T17:40:26.394Z,25.00
2022-07-30T17:42:26.287Z,25.00
2022-07-30T17:44:53.035Z,24.80
2022-07-30T17:47:19.778Z,24.80
2022-07-30T17:49:46.512Z,24.70
2022-07-30T17:52:13.310Z,24.60
2022-07-30T17:54:40.012Z,24.60
2022-07-30T17:57:07.193Z,24.60
2022-07-30T17:59:33.913Z,24.50
2022-07-30T18:02:01.092Z,24.50
2022-07-30T18:04:28.105Z,24.40
2022-07-30T18:06:54.868Z,24.40
2022-07-30T18:09:21.758Z,24.40
2022-07-30T18:11:49.144Z,24.30
2022-07-30T18:14:15.850Z,24.30
2022-07-30T18:16:42.598Z,24.40
2022-07-30T18:19:09.384Z,24.50
2022-07-30T18:21:49.686Z,24.70
2022-07-30T18:24:16.388Z,24.90
2022-07-30T18:26:43.170Z,24.90
2022-07-30T18:29:13.899Z,24.80
2022-07-30T18:31:41.014Z,24.80
2022-07-30T18:34:07.858Z,24.70
2022-07-30T18:36:34.530Z,24.60
2022-07-30T18:39:01.452Z,24.50
2022-07-30T18:41:31.643Z,24.50
2022-07-30T18:43:58.375Z,24.40
2022-07-30T18:46:25.105Z,24.40
2022-07-30T18:48:52.031Z,24.30
2022-07-30T18:51:18.809Z,24.30
2022-07-30T18:53:45.597Z,24.30
2022-07-30T18:56:13.360Z,24.20
2022-07-30T18:58:40.098Z,24.20
2022-07-30T19:01:09.630Z,24.10
2022-07-30T19:03:36.487Z,24.00
2022-07-30T19:06:03.305Z,24.10
2022-07-30T19:08:30.161Z,24.20
2022-07-30T19:10:56.959Z,24.30
2022-07-30T19:13:26.859Z,24.40
2022-07-30T19:15:54.070Z,24.50
2022-07-30T19:18:20.776Z,24.60
2022-07-30T19:20:47.701Z,24.80
2022-07-30T19:23:16.465Z,25.00
2022-07-30T19:25:43.184Z,25.10
2022-07-30T19:28:11.645Z,25.20
2022-07-30T19:30:38.387Z,25.30
2022-07-30T19:33:10.231Z,25.30
2022-07-30T19:35:41.148Z,25.30
2022-07-30T19:38:08.770Z,25.30
2022-07-30T19:40:39.784Z,25.30
2022-07-30T19:43:09.345Z,25.30
2022-07-30T19:45:47.243Z,25.30
2022-07-30T19:48:15.533Z,25.20
2022-07-30T19:50:56.773Z,25.20
2022-07-30T19:53:23.518Z,25.20
2022-07-30T19:55:50.961Z,25.20
2022-07-30T19:58:17.950Z,25.20
2022-07-30T20:00:49.639Z,25.20
2022-07-30T20:03:16.757Z,25.10
2022-07-30T20:05:57.295Z,25.10
2022-07-30T20:08:26.791Z,25.10
2022-07-30T20:10:53.603Z,25.10
2022-07-30T20:13:25.361Z,25.10
2022-07-30T20:16:13.884Z,25.10
2022-07-30T20:18:41.167Z,25.10
2022-07-30T20:21:13.995Z,25.10
2022-07-30T20:23:41.516Z,25.20
2022-07-30T20:26:12.481Z,25.40
2022-07-30T20:28:40.254Z,25.40
2022-07-30T20:31:07.437Z,25.60
2022-07-30T20:33:36.054Z,25.60
2022-07-30T20:36:22.394Z,25.50
2022-07-30T20:38:49.373Z,25.50
2022-07-30T20:41:16.192Z,25.50
2022-07-30T20:43:46.244Z,25.50
2022-07-30T20:46:19.625Z,25.40
2022-07-30T20:48:46.413Z,25.40
2022-07-30T20:51:13.176Z,25.40
2022-07-30T20:53:41.869Z,25.40
2022-07-30T20:56:12.373Z,25.40
2022-07-30T21:01:28.471Z,25.30
2022-07-30T21:03:57.558Z,25.30
2022-07-30T21:06:26.277Z,25.30
2022-07-30T21:08:53.511Z,25.30
2022-07-30T21:11:21.896Z,25.30
2022-07-30T21:13:49.219Z,25.20
2022-07-30T21:16:16.833Z,25.20
2022-07-30T21:18:50.366Z,25.20
2022-07-30T21:24:11.389Z,25.20
2022-07-30T21:26:40.477Z,25.30
2022-07-30T21:29:07.373Z,25.30
2022-07-30T21:31:58.105Z,25.40
2022-07-30T21:34:20.894Z,25.50
2022-07-30T21:36:53.249Z,25.60
2022-07-30T21:39:19.941Z,25.60
2022-07-30T21:41:55.850Z,25.60
2022-07-30T21:44:22.581Z,25.60
2022-07-30T21:46:50.581Z,25.60
2022-07-30T21:49:17.518Z,25.60
2022-07-30T21:51:44.554Z,25.50
2022-07-30T21:54:11.355Z,25.50
2022-07-30T21:56:41.468Z,25.40
2022-07-30T21:59:08.588Z,25.40
2022-07-30T22:01:38.750Z,25.40
2022-07-30T22:04:09.240Z,25.30
2022-07-30T22:06:37.954Z,25.30
2022-07-30T22:09:19.723Z,25.20
2022-07-30T22:11:52.491Z,25.20
2022-07-30T22:14:19.178Z,25.20
2022-07-30T22:16:46.680Z,25.20
2022-07-30T22:19:14.679Z,25.10
2022-07-30T22:21:42.373Z,25.10
2022-07-30T22:24:09.134Z,25.10
2022-07-30T22:26:35.855Z,25.00
2022-07-30T22:29:02.559Z,25.00
2022-07-30T22:31:39.334Z,25.10
2022-07-30T22:34:11.480Z,25.20
2022-07-30T22:36:38.447Z,25.30
2022-07-30T22:39:05.589Z,25.40
2022-07-30T22:41:35.670Z,25.50
2022-07-30T22:44:03.630Z,25.50
2022-07-30T22:46:31.968Z,25.50
2022-07-30T22:48:59.357Z,25.50
2022-07-30T22:51:50.269Z,25.50
2022-07-30T22:54:13.678Z,25.40
2022-07-30T22:56:40.657Z,25.40
2022-07-30T22:59:07.428Z,25.40
2022-07-30T23:01:34.160Z,25.30
2022-07-30T23:04:01.523Z,25.30
2022-07-30T23:06:30.093Z,25.20
2022-07-30T23:08:57.025Z,25.20
2022-07-30T23:11:23.794Z,25.20
2022-07-30T23:12:26.632Z,25.40
2022-07-30T23:12:27.128Z,25.20
2022-07-30T23:13:53.816Z,25.20
2022-07-30T23:16:20.624Z,25.20
2022-07-30T23:18:47.442Z,25.10
2022-07-30T23:21:15.061Z,25.10
2022-07-30T23:23:41.865Z,25.10
2022-07-30T23:26:08.810Z,25.00
2022-07-30T23:28:36.800Z,25.00
2022-07-30T23:31:03.968Z,25.00
2022-07-30T23:33:31.065Z,25.00
2022-07-30T23:35:57.888Z,25.00
2022-07-30T23:38:25.312Z,25.00
2022-07-30T23:40:52.435Z,25.20
2022-07-30T23:43:19.135Z,25.30
2022-07-30T23:45:45.933Z,25.40
2022-07-30T23:48:12.588Z,25.40
2022-07-30T23:50:39.276Z,25.40
2022-07-30T23:53:05.965Z,25.40
2022-07-30T23:55:32.724Z,25.30
2022-07-30T23:58:00.165Z,25.30
